Time;durP1;ratioP1;P1;durP2;ratioP2;P2;SDS_P1;SDS_P2;PMS_P1;PMS_P2;Temp;Humidity;BMP_temperature;BMP_pressure;BME280_temperature;BME280_humidity;BME280_pressure;Samples;Min_cycle;Max_cycle;Signal;HPM_P1;HPM_P2
2024/01/03 00:02:00;;;;;;;12.93;2.57;;;;;;;;;;5026563;28;20411;-65
2024/01/03 00:04:27;;;;;;;12.52;2.60;;;;;;;;;;5026420;28;20508;-61
2024/01/03 00:06:52;;;;;;;11.13;2.58;;;;;;;;;;5027877;28;20407;-61
2024/01/03 00:09:17;;;;;;;13.60;2.57;;;;;;;;;;5027203;28;20400;-60
2024/01/03 00:11:45;;;;;;;14.97;2.80;;;;;;;;;;5027268;28;20799;-60
2024/01/03 00:14:24;;;;;;;14.27;2.80;;;;;;;;;;5027454;28;20407;-61
2024/01/03 00:16:50;;;;;;;13.57;3.55;;;;;;;;;;5023794;28;20438;-60
2024/01/03 00:19:16;;;;;;;22.10;6.70;;;;;;;;;;5027347;28;20407;-60
2024/01/03 00:21:41;;;;;;;24.83;9.00;;;;;;;;;;5026273;28;20437;-60
2024/01/03 00:24:08;;;;;;;32.90;12.55;;;;;;;;;;5026635;28;20541;-61
2024/01/03 00:26:33;;;;;;;29.73;12.02;;;;;;;;;;5026857;28;20453;-60
2024/01/03 00:28:59;;;;;;;29.08;10.48;;;;;;;;;;5026845;28;20588;-60
2024/01/03 00:31:25;;;;;;;20.97;7.30;;;;;;;;;;5026142;28;20479;-60
2024/01/03 00:33:50;;;;;;;18.85;6.05;;;;;;;;;;5028050;28;20418;-60
2024/01/03 00:36:16;;;;;;;18.23;5.97;;;;;;;;;;5027440;28;20403;-60
2024/01/03 00:38:42;;;;;;;20.65;6.53;;;;;;;;;;5027335;28;20561;-60
2024/01/03 00:41:09;;;;;;;21.00;7.30;;;;;;;;;;5026902;28;20429;-60
2024/01/03 00:43:36;;;;;;;21.95;7.07;;;;;;;;;;5027856;28;20407;-60
2024/01/03 00:46:01;;;;;;;23.80;7.80;;;;;;;;;;5026937;28;20414;-61
2024/01/03 00:48:27;;;;;;;23.80;7.93;;;;;;;;;;5023074;28;20395;-60
2024/01/03 00:50:53;;;;;;;25.03;8.20;;;;;;;;;;5025428;28;20403;-60
2024/01/03 00:53:18;;;;;;;29.13;10.52;;;;;;;;;;5026725;28;20415;-60
2024/01/03 00:55:43;;;;;;;28.07;11.23;;;;;;;;;;5027829;28;20403;-60
2024/01/03 00:58:09;;;;;;;23.20;8.63;;;;;;;;;;5026479;28;20419;-60
2024/01/03 01:00:36;;;;;;;19.65;7.30;;;;;;;;;;5026632;28;20926;-60
2024/01/03 01:03:01;;;;;;;24.23;9.07;;;;;;;;;;5027544;28;20399;-60
2024/01/03 01:05:27;;;;;;;19.70;6.40;;;;;;;;;;5027415;28;20724;-60
2024/01/03 01:07:52;;;;;;;18.23;5.40;;;;;;;;;;5027123;28;20457;-60
2024/01/03 01:10:17;;;;;;;14.93;4.27;;;;;;;;;;5026568;28;20445;-60
2024/01/03 01:12:42;;;;;;;18.30;4.90;;;;;;;;;;5029267;28;20906;-60
2024/01/03 01:15:08;;;;;;;14.87;3.70;;;;;;;;;;5030866;28;20403;-60
2024/01/03 01:17:33;;;;;;;15.60;3.67;;;;;;;;;;5029840;28;20797;-59
2024/01/03 01:19:58;;;;;;;13.43;2.60;;;;;;;;;;5029436;28;20482;-60
2024/01/03 01:22:25;;;;;;;18.33;3.90;;;;;;;;;;5030283;28;20411;-60
2024/01/03 01:24:51;;;;;;;16.38;3.75;;;;;;;;;;5030952;28;20418;-60
2024/01/03 01:27:16;;;;;;;19.37;4.73;;;;;;;;;;5028156;28;20914;-60
2024/01/03 01:29:41;;;;;;;19.00;5.37;;;;;;;;;;5030631;28;20452;-60
2024/01/03 01:32:07;;;;;;;22.93;5.70;;;;;;;;;;5030474;28;20407;-60
2024/01/03 01:34:32;;;;;;;20.40;5.30;;;;;;;;;;5030575;28;20490;-60
2024/01/03 01:36:57;;;;;;;20.73;5.20;;;;;;;;;;5030714;28;20427;-60
2024/01/03 01:39:22;;;;;;;20.57;4.90;;;;;;;;;;5029868;28;20474;-60
2024/01/03 01:41:48;;;;;;;17.83;3.92;;;;;;;;;;5029668;28;20426;-60
2024/01/03 01:44:13;;;;;;;16.57;3.97;;;;;;;;;;5030221;28;20410;-60
2024/01/03 01:46:39;;;;;;;18.43;3.67;;;;;;;;;;5030466;28;20395;-60
2024/01/03 01:49:05;;;;;;;18.90;3.85;;;;;;;;;;5040406;28;20464;-60
2024/01/03 01:51:30;;;;;;;17.20;3.73;;;;;;;;;;5030053;28;20794;-60
2024/01/03 01:53:55;;;;;;;16.52;3.83;;;;;;;;;;5045527;28;20403;-60
2024/01/03 01:56:21;;;;;;;16.73;3.60;;;;;;;;;;5029332;28;20376;-60
2024/01/03 01:58:46;;;;;;;17.90;3.77;;;;;;;;;;5030289;28;20398;-60
2024/01/03 02:01:11;;;;;;;18.33;3.90;;;;;;;;;;5027866;28;20419;-60
2024/01/03 02:03:36;;;;;;;17.87;4.00;;;;;;;;;;5014544;28;20475;-59
2024/01/03 02:06:02;;;;;;;19.23;4.10;;;;;;;;;;5000371;28;20449;-60
2024/01/03 02:08:27;;;;;;;20.85;3.80;;;;;;;;;;5017872;28;21044;-60
2024/01/03 02:10:53;;;;;;;18.77;3.87;;;;;;;;;;5011396;28;20407;-59
2024/01/03 02:13:18;;;;;;;18.93;3.80;;;;;;;;;;4994904;28;20450;-60
2024/01/03 02:15:43;;;;;;;20.83;3.80;;;;;;;;;;4997742;28;20393;-60
2024/01/03 02:18:09;;;;;;;18.70;3.85;;;;;;;;;;5000203;28;20905;-60
2024/01/03 02:20:34;;;;;;;16.37;3.63;;;;;;;;;;5026686;28;20413;-60
2024/01/03 02:23:00;;;;;;;18.03;3.37;;;;;;;;;;5016065;28;20982;-60
2024/01/03 02:25:25;;;;;;;17.90;3.30;;;;;;;;;;5001171;28;20443;-59
2024/01/03 02:27:50;;;;;;;15.50;3.40;;;;;;;;;;5000602;28;20458;-60
2024/01/03 02:30:16;;;;;;;17.47;3.50;;;;;;;;;;4996873;28;20644;-59
2024/01/03 02:32:41;;;;;;;19.70;3.80;;;;;;;;;;4993515;28;20420;-57
2024/01/03 02:35:06;;;;;;;22.47;4.53;;;;;;;;;;4993073;28;20404;-60
2024/01/03 02:37:32;;;;;;;15.82;3.60;;;;;;;;;;4994343;28;20415;-60
2024/01/03 02:39:57;;;;;;;17.60;3.60;;;;;;;;;;5034323;28;20401;-59
2024/01/03 02:42:22;;;;;;;18.90;3.70;;;;;;;;;;5019265;28;20425;-59
2024/01/03 02:44:47;;;;;;;17.77;3.33;;;;;;;;;;5009595;28;20419;-59
2024/01/03 02:47:13;;;;;;;19.27;3.47;;;;;;;;;;4999920;28;20408;-60
2024/01/03 02:49:38;;;;;;;17.90;3.23;;;;;;;;;;4995177;28;20401;-60
2024/01/03 02:52:03;;;;;;;17.58;3.72;;;;;;;;;;4999390;28;20432;-60
2024/01/03 02:54:29;;;;;;;17.83;3.67;;;;;;;;;;4993616;28;21170;-59
2024/01/03 02:56:54;;;;;;;17.87;3.93;;;;;;;;;;4992126;28;21084;-59
2024/01/03 02:59:19;;;;;;;17.23;3.53;;;;;;;;;;4992398;28;20420;-59
2024/01/03 03:01:44;;;;;;;21.57;4.03;;;;;;;;;;4999270;28;20470;-59
2024/01/03 03:04:10;;;;;;;17.00;4.07;;;;;;;;;;4999672;28;20420;-60
2024/01/03 03:06:35;;;;;;;20.53;3.90;;;;;;;;;;5000172;28;20405;-59
2024/01/03 03:09:00;;;;;;;20.60;3.83;;;;;;;;;;4999334;28;20748;-64
2024/01/03 03:11:26;;;;;;;18.73;3.73;;;;;;;;;;4999376;28;20404;-59
2024/01/03 03:13:51;;;;;;;17.13;3.53;;;;;;;;;;4999478;28;20767;-60
2024/01/03 03:16:16;;;;;;;19.77;3.83;;;;;;;;;;5013987;28;20407;-60
2024/01/03 03:18:41;;;;;;;18.27;3.70;;;;;;;;;;5000982;28;20504;-59
2024/01/03 03:21:08;;;;;;;20.40;4.20;;;;;;;;;;4991228;28;20884;-59
2024/01/03 03:23:35;;;;;;;20.02;4.20;;;;;;;;;;4996600;28;20447;-59
2024/01/03 03:26:01;;;;;;;19.40;3.80;;;;;;;;;;4999329;28;20423;-60
2024/01/03 03:28:27;;;;;;;15.48;3.80;;;;;;;;;;4999073;28;20425;-59
2024/01/03 03:30:52;;;;;;;18.33;4.13;;;;;;;;;;4999264;28;20912;-59
2024/01/03 03:33:17;;;;;;;19.10;3.70;;;;;;;;;;4999020;28;20404;-59
2024/01/03 03:35:42;;;;;;;22.73;4.10;;;;;;;;;;4999233;28;20543;-59
2024/01/03 03:38:08;;;;;;;21.10;4.13;;;;;;;;;;4997014;28;20424;-59
2024/01/03 03:40:33;;;;;;;20.37;4.33;;;;;;;;;;4990850;28;20393;-59
2024/01/03 03:42:58;;;;;;;20.03;4.20;;;;;;;;;;4992886;28;20411;-59
2024/01/03 03:45:24;;;;;;;21.40;4.33;;;;;;;;;;4993903;28;20492;-59
2024/01/03 03:47:49;;;;;;;20.70;4.13;;;;;;;;;;4998977;28;20435;-59
2024/01/03 03:50:14;;;;;;;21.13;3.85;;;;;;;;;;4994036;28;20424;-59
2024/01/03 03:52:40;;;;;;;21.27;4.07;;;;;;;;;;4999899;28;20896;-59
2024/01/03 03:55:06;;;;;;;21.57;4.30;;;;;;;;;;4998389;28;20412;-59
2024/01/03 03:57:31;;;;;;;22.23;4.00;;;;;;;;;;4999000;28;20427;-59
2024/01/03 03:59:57;;;;;;;20.40;4.03;;;;;;;;;;4998650;28;20400;-59
2024/01/03 04:02:23;;;;;;;23.10;4.40;;;;;;;;;;4991490;28;20405;-59
2024/01/03 04:04:48;;;;;;;20.73;3.95;;;;;;;;;;5011238;28;20402;-59
2024/01/03 04:07:13;;;;;;;22.80;4.30;;;;;;;;;;5010822;28;20798;-59
2024/01/03 04:09:42;;;;;;;23.87;4.60;;;;;;;;;;5016830;28;20399;-60
2024/01/03 04:12:10;;;;;;;24.27;4.13;;;;;;;;;;5017390;28;20426;-60
2024/01/03 04:14:36;;;;;;;23.48;4.53;;;;;;;;;;5018536;28;20399;-59
2024/01/03 04:17:02;;;;;;;21.55;4.72;;;;;;;;;;5005947;28;20427;-60
2024/01/03 04:19:27;;;;;;;22.27;4.63;;;;;;;;;;4999221;28;20387;-59
2024/01/03 04:21:52;;;;;;;22.07;4.67;;;;;;;;;;4998155;28;20487;-59
2024/01/03 04:24:18;;;;;;;22.50;4.20;;;;;;;;;;4993335;28;22167;-59
2024/01/03 04:26:43;;;;;;;22.38;4.90;;;;;;;;;;4991570;28;20901;-59
2024/01/03 04:29:09;;;;;;;22.30;4.40;;;;;;;;;;4990747;28;20453;-59
2024/01/03 04:31:34;;;;;;;22.23;4.33;;;;;;;;;;4995792;28;20416;-59
2024/01/03 04:33:59;;;;;;;23.43;4.23;;;;;;;;;;4999251;28;20496;-59
2024/01/03 04:36:24;;;;;;;20.00;3.90;;;;;;;;;;4998327;28;20436;-59
2024/01/03 04:38:50;;;;;;;21.67;4.60;;;;;;;;;;4999153;28;20423;-59
2024/01/03 04:41:15;;;;;;;25.40;4.97;;;;;;;;;;4998058;28;20432;-59
2024/01/03 04:43:41;;;;;;;25.60;4.97;;;;;;;;;;4998788;28;20450;-59
2024/01/03 04:46:06;;;;;;;25.17;5.07;;;;;;;;;;4996117;28;20437;-60
2024/01/03 04:48:31;;;;;;;21.77;4.70;;;;;;;;;;4990909;28;20405;-59
2024/01/03 04:50:56;;;;;;;22.93;5.07;;;;;;;;;;4994341;28;20990;-59
2024/01/03 04:53:22;;;;;;;21.93;4.87;;;;;;;;;;5006428;28;20403;-59
2024/01/03 04:55:47;;;;;;;25.00;4.60;;;;;;;;;;5030439;28;20771;-59
2024/01/03 04:58:12;;;;;;;23.40;4.90;;;;;;;;;;5029795;28;20822;-59
2024/01/03 05:00:37;;;;;;;19.50;4.87;;;;;;;;;;5030944;28;20441;-59
2024/01/03 05:03:03;;;;;;;24.30;5.33;;;;;;;;;;5030710;28;20408;-60
2024/01/03 05:05:28;;;;;;;26.33;6.10;;;;;;;;;;5031014;28;20438;-59
2024/01/03 05:07:56;;;;;;;23.97;6.77;;;;;;;;;;5031441;28;20425;-59
2024/01/03 05:10:21;;;;;;;27.17;7.28;;;;;;;;;;5029604;28;20405;-59
2024/01/03 05:12:46;;;;;;;24.93;6.87;;;;;;;;;;5030679;28;20399;-59
2024/01/03 05:15:11;;;;;;;25.63;7.17;;;;;;;;;;5030621;28;20875;-59
2024/01/03 05:17:37;;;;;;;22.05;6.40;;;;;;;;;;5030834;28;20941;-59
2024/01/03 05:20:04;;;;;;;20.27;5.77;;;;;;;;;;5029464;28;20518;-60
2024/01/03 05:22:31;;;;;;;20.38;5.57;;;;;;;;;;5031040;28;20403;-59
2024/01/03 05:24:56;;;;;;;24.30;6.60;;;;;;;;;;5030421;28;20407;-59
2024/01/03 05:27:21;;;;;;;23.40;5.72;;;;;;;;;;5030094;28;20387;-59
2024/01/03 05:29:47;;;;;;;22.00;6.20;;;;;;;;;;5030090;28;20399;-59
2024/01/03 05:32:12;;;;;;;22.27;5.43;;;;;;;;;;5030391;28;20481;-59
2024/01/03 05:34:38;;;;;;;22.90;5.80;;;;;;;;;;5030248;28;20904;-59
2024/01/03 05:37:03;;;;;;;19.17;4.65;;;;;;;;;;5025682;28;20955;-59
2024/01/03 05:39:28;;;;;;;19.70;4.53;;;;;;;;;;5028854;28;20498;-59
2024/01/03 05:41:53;;;;;;;23.23;4.17;;;;;;;;;;5029506;28;20407;-59
2024/01/03 05:44:19;;;;;;;19.47;4.03;;;;;;;;;;5029979;28;20930;-59
2024/01/03 05:46:45;;;;;;;17.37;3.40;;;;;;;;;;5030510;28;20443;-59
2024/01/03 05:49:10;;;;;;;18.03;3.30;;;;;;;;;;5024748;28;20407;-62
2024/01/03 05:51:36;;;;;;;16.00;3.60;;;;;;;;;;5029963;28;20406;-59
2024/01/03 05:54:01;;;;;;;16.87;3.87;;;;;;;;;;5028872;28;20400;-60
2024/01/03 05:56:27;;;;;;;17.77;3.77;;;;;;;;;;5029762;28;20486;-59
2024/01/03 05:58:52;;;;;;;17.88;3.65;;;;;;;;;;5029881;28;20438;-60
2024/01/03 06:01:18;;;;;;;19.80;4.63;;;;;;;;;;5028527;28;20403;-60
2024/01/03 06:03:43;;;;;;;16.57;3.67;;;;;;;;;;5030207;28;20727;-60
2024/01/03 06:06:09;;;;;;;18.60;3.60;;;;;;;;;;5029593;28;20515;-60
2024/01/03 06:08:34;;;;;;;16.77;4.13;;;;;;;;;;5029712;28;20395;-60
2024/01/03 06:10:59;;;;;;;19.47;4.10;;;;;;;;;;5029614;28;20465;-60
2024/01/03 06:13:25;;;;;;;16.63;3.67;;;;;;;;;;5029487;28;20474;-59
2024/01/03 06:15:50;;;;;;;16.08;3.95;;;;;;;;;;5029632;28;20993;-59
2024/01/03 06:18:15;;;;;;;14.83;2.93;;;;;;;;;;5029516;28;20421;-59
2024/01/03 06:20:41;;;;;;;13.73;3.00;;;;;;;;;;5029385;28;20794;-59
2024/01/03 06:23:06;;;;;;;12.57;2.47;;;;;;;;;;5003128;28;20452;-60
2024/01/03 06:25:32;;;;;;;11.87;2.80;;;;;;;;;;5001802;28;20896;-59
2024/01/03 06:27:57;;;;;;;11.45;2.20;;;;;;;;;;5000732;28;20413;-59
2024/01/03 06:30:22;;;;;;;12.47;2.77;;;;;;;;;;4999390;28;20389;-59
2024/01/03 06:32:48;;;;;;;13.20;2.53;;;;;;;;;;5001149;28;20429;-59
2024/01/03 06:35:13;;;;;;;11.60;2.47;;;;;;;;;;5000468;28;20412;-59
2024/01/03 06:37:39;;;;;;;8.90;2.20;;;;;;;;;;5006042;28;20513;-59
2024/01/03 06:40:05;;;;;;;10.68;2.50;;;;;;;;;;4997289;28;20680;-60
2024/01/03 06:42:30;;;;;;;9.03;1.83;;;;;;;;;;4999245;28;21131;-59
2024/01/03 06:44:55;;;;;;;9.63;2.23;;;;;;;;;;4995342;28;20404;-59
2024/01/03 06:47:20;;;;;;;9.23;2.20;;;;;;;;;;4999781;28;20483;-59
2024/01/03 06:49:46;;;;;;;10.87;2.60;;;;;;;;;;4994879;28;20420;-59
2024/01/03 06:52:11;;;;;;;8.17;2.00;;;;;;;;;;4999326;28;20401;-60
2024/01/03 06:54:36;;;;;;;10.73;3.47;;;;;;;;;;5011197;28;20400;-59
2024/01/03 06:57:03;;;;;;;7.33;2.43;;;;;;;;;;5002700;28;20423;-59
2024/01/03 06:59:28;;;;;;;8.15;1.88;;;;;;;;;;5019249;28;20487;-59
2024/01/03 07:01:53;;;;;;;8.10;1.70;;;;;;;;;;4999456;28;20881;-59
2024/01/03 07:04:21;;;;;;;7.10;1.30;;;;;;;;;;4993644;28;20401;-59
2024/01/03 07:06:47;;;;;;;9.00;2.15;;;;;;;;;;5027102;28;20399;-59
2024/01/03 07:09:12;;;;;;;6.70;1.77;;;;;;;;;;5027324;28;20774;-59
2024/01/03 07:11:38;;;;;;;6.77;1.50;;;;;;;;;;5027889;28;20411;-59
2024/01/03 07:14:04;;;;;;;7.10;1.40;;;;;;;;;;5028485;28;20403;-59
2024/01/03 07:16:29;;;;;;;5.95;1.15;;;;;;;;;;5025416;28;20897;-59
2024/01/03 07:18:54;;;;;;;6.40;1.40;;;;;;;;;;5027183;28;20480;-59
2024/01/03 07:21:22;;;;;;;4.80;1.20;;;;;;;;;;5027274;28;20426;-58
2024/01/03 07:23:47;;;;;;;3.55;1.02;;;;;;;;;;5027942;28;20411;-59
2024/01/03 07:26:13;;;;;;;4.80;1.00;;;;;;;;;;5027554;28;20406;-59
2024/01/03 07:28:38;;;;;;;4.23;1.13;;;;;;;;;;5027875;28;20404;-59
2024/01/03 07:31:04;;;;;;;4.72;0.88;;;;;;;;;;5026937;28;20411;-58
2024/01/03 07:33:29;;;;;;;4.83;0.90;;;;;;;;;;5027073;28;20399;-59
2024/01/03 07:35:54;;;;;;;4.47;0.87;;;;;;;;;;5028322;28;20399;-59
2024/01/03 07:38:20;;;;;;;4.20;0.83;;;;;;;;;;5026684;28;20398;-60
2024/01/03 07:40:45;;;;;;;4.17;0.90;;;;;;;;;;5027080;28;20405;-60
2024/01/03 07:43:10;;;;;;;3.28;0.70;;;;;;;;;;5027601;28;20446;-60
2024/01/03 07:45:35;;;;;;;4.03;0.90;;;;;;;;;;5028157;28;20956;-59
2024/01/03 07:48:01;;;;;;;4.00;0.90;;;;;;;;;;5022406;28;20399;-61
2024/01/03 07:50:26;;;;;;;2.77;0.60;;;;;;;;;;5027233;28;21134;-59
2024/01/03 07:52:51;;;;;;;3.97;0.80;;;;;;;;;;5027405;28;20403;-59
2024/01/03 07:55:17;;;;;;;2.93;0.70;;;;;;;;;;5027077;28;20395;-59
2024/01/03 07:57:42;;;;;;;3.53;0.80;;;;;;;;;;5027450;28;20502;-59
2024/01/03 08:00:08;;;;;;;4.33;0.93;;;;;;;;;;5026497;28;20813;-60
2024/01/03 08:02:33;;;;;;;2.97;0.80;;;;;;;;;;5027182;28;20399;-59
2024/01/03 08:04:58;;;;;;;3.67;0.70;;;;;;;;;;5041001;28;20476;-59
2024/01/03 08:07:24;;;;;;;3.30;0.60;;;;;;;;;;5024309;28;20441;-59
2024/01/03 08:09:50;;;;;;;3.80;0.67;;;;;;;;;;5026852;28;20411;-60
2024/01/03 08:12:16;;;;;;;3.63;0.70;;;;;;;;;;5035235;28;20485;-60
2024/01/03 08:14:41;;;;;;;3.87;0.70;;;;;;;;;;5024351;28;20502;-59
2024/01/03 08:17:06;;;;;;;3.13;0.70;;;;;;;;;;5026295;28;20415;-61
2024/01/03 08:19:32;;;;;;;3.23;0.80;;;;;;;;;;5026328;28;20914;-60
2024/01/03 08:21:57;;;;;;;3.58;0.60;;;;;;;;;;5029462;28;20422;-60
2024/01/03 08:24:22;;;;;;;3.80;0.77;;;;;;;;;;5031429;28;20399;-59
2024/01/03 08:26:49;;;;;;;2.53;0.60;;;;;;;;;;5031525;28;20402;-59
2024/01/03 08:29:14;;;;;;;4.10;0.70;;;;;;;;;;5030832;28;20620;-60
2024/01/03 08:31:39;;;;;;;2.65;0.73;;;;;;;;;;5030785;28;20903;-59
2024/01/03 08:34:05;;;;;;;4.30;0.93;;;;;;;;;;5031046;28;20392;-60
2024/01/03 08:36:38;;;;;;;5.73;2.30;;;;;;;;;;5030996;28;20830;-59
2024/01/03 08:39:03;;;;;;;4.10;0.90;;;;;;;;;;5030986;28;20421;-60
2024/01/03 08:41:28;;;;;;;4.93;1.10;;;;;;;;;;5030748;28;20898;-59
2024/01/03 08:43:54;;;;;;;8.17;5.00;;;;;;;;;;5028303;28;20797;-59
2024/01/03 08:46:19;;;;;;;11.00;7.53;;;;;;;;;;5030594;28;20898;-59
2024/01/03 08:48:44;;;;;;;6.80;2.28;;;;;;;;;;5026698;28;20894;-59
2024/01/03 08:51:10;;;;;;;13.93;11.53;;;;;;;;;;5030140;28;20399;-59
2024/01/03 08:53:35;;;;;;;9.88;8.00;;;;;;;;;;5031709;28;20407;-59
2024/01/03 08:56:04;;;;;;;20.13;12.60;;;;;;;;;;5030795;28;20739;-60
2024/01/03 08:58:30;;;;;;;10.93;5.55;;;;;;;;;;5030642;28;21013;-59
2024/01/03 09:00:55;;;;;;;11.07;5.27;;;;;;;;;;5030712;28;20486;-59
2024/01/03 09:03:21;;;;;;;10.27;4.47;;;;;;;;;;5029567;28;20395;-59
2024/01/03 09:05:46;;;;;;;10.20;5.50;;;;;;;;;;5030750;28;20515;-59
2024/01/03 09:08:11;;;;;;;6.97;3.37;;;;;;;;;;5031070;28;20402;-59
2024/01/03 09:10:37;;;;;;;8.57;4.43;;;;;;;;;;5030570;28;20801;-59
2024/01/03 09:13:02;;;;;;;6.77;2.80;;;;;;;;;;5030510;28;21058;-60
2024/01/03 09:15:27;;;;;;;9.67;4.70;;;;;;;;;;5030955;28;20403;-59
2024/01/03 09:17:53;;;;;;;7.53;4.68;;;;;;;;;;5030494;28;20510;-59
2024/01/03 09:20:19;;;;;;;7.23;3.20;;;;;;;;;;5029573;28;20494;-59
2024/01/03 09:22:44;;;;;;;10.10;5.53;;;;;;;;;;5030470;28;20411;-59
2024/01/03 09:25:10;;;;;;;9.02;3.30;;;;;;;;;;5030235;28;20587;-60
2024/01/03 09:27:35;;;;;;;9.40;2.95;;;;;;;;;;5031108;28;20406;-59
2024/01/03 09:30:02;;;;;;;10.07;4.90;;;;;;;;;;5029734;28;20460;-60
2024/01/03 09:32:27;;;;;;;9.25;3.67;;;;;;;;;;5029489;28;20418;-60
2024/01/03 09:34:52;;;;;;;9.90;6.53;;;;;;;;;;5030761;28;20395;-59
2024/01/03 09:37:18;;;;;;;8.43;2.35;;;;;;;;;;5030102;28;20580;-59
2024/01/03 09:39:43;;;;;;;11.50;4.50;;;;;;;;;;5029877;28;20414;-60
2024/01/03 09:42:08;;;;;;;10.43;4.83;;;;;;;;;;5030293;28;20502;-60
2024/01/03 09:44:34;;;;;;;9.93;3.53;;;;;;;;;;5030502;28;20793;-59
2024/01/03 09:46:59;;;;;;;13.23;8.77;;;;;;;;;;5030180;28;20431;-60
2024/01/03 09:49:24;;;;;;;11.73;5.68;;;;;;;;;;5025534;28;20411;-59
2024/01/03 09:51:50;;;;;;;14.33;5.97;;;;;;;;;;5029628;28;20415;-59
2024/01/03 09:54:15;;;;;;;11.60;6.03;;;;;;;;;;5044920;28;20403;-60
2024/01/03 09:56:40;;;;;;;11.00;3.27;;;;;;;;;;5030359;28;20441;-60
2024/01/03 09:59:06;;;;;;;10.05;3.10;;;;;;;;;;5029867;28;20407;-60
2024/01/03 10:01:32;;;;;;;10.40;2.80;;;;;;;;;;5029421;28;20453;-59
2024/01/03 10:03:58;;;;;;;11.27;2.88;;;;;;;;;;5030275;28;20403;-59
2024/01/03 10:06:23;;;;;;;10.77;2.40;;;;;;;;;;5029659;28;20446;-60
2024/01/03 10:08:56;;;;;;;10.50;2.38;;;;;;;;;;5029997;28;20400;-60
2024/01/03 10:11:21;;;;;;;10.02;2.28;;;;;;;;;;5029199;28;20391;-59
2024/01/03 10:13:48;;;;;;;11.10;2.40;;;;;;;;;;5030148;28;20395;-59
2024/01/03 10:16:14;;;;;;;12.07;2.50;;;;;;;;;;5029012;28;20403;-60
2024/01/03 10:18:40;;;;;;;11.10;2.37;;;;;;;;;;5044571;28;20510;-60
2024/01/03 10:21:11;;;;;;;11.73;2.83;;;;;;;;;;5028732;28;20443;-60
2024/01/03 10:23:36;;;;;;;16.40;4.28;;;;;;;;;;5029579;28;20501;-59
2024/01/03 10:26:01;;;;;;;14.70;3.40;;;;;;;;;;5029321;28;21014;-60
2024/01/03 10:28:27;;;;;;;15.83;4.00;;;;;;;;;;5029360;28;20457;-60
2024/01/03 10:30:53;;;;;;;16.17;3.60;;;;;;;;;;5028989;28;20399;-60
2024/01/03 10:33:18;;;;;;;23.48;9.90;;;;;;;;;;5028585;28;20921;-60
2024/01/03 10:35:44;;;;;;;22.23;12.23;;;;;;;;;;5029237;28;20437;-60
2024/01/03 10:38:09;;;;;;;25.17;14.13;;;;;;;;;;5029041;28;20422;-60
2024/01/03 10:40:36;;;;;;;26.33;14.20;;;;;;;;;;5029069;28;20415;-61
2024/01/03 10:43:02;;;;;;;24.27;10.37;;;;;;;;;;5028852;28;20921;-60
2024/01/03 10:45:27;;;;;;;27.75;13.77;;;;;;;;;;5028663;28;21180;-60
2024/01/03 10:47:53;;;;;;;20.83;10.70;;;;;;;;;;5024483;28;20418;-60
2024/01/03 10:50:18;;;;;;;20.60;8.53;;;;;;;;;;5027996;28;20910;-60
2024/01/03 10:52:44;;;;;;;21.48;6.90;;;;;;;;;;5029519;28;20414;-59
2024/01/03 10:55:10;;;;;;;20.30;7.57;;;;;;;;;;5028887;28;20452;-60
2024/01/03 10:57:35;;;;;;;20.20;4.85;;;;;;;;;;5028535;28;20402;-60
2024/01/03 11:00:12;;;;;;;21.23;7.67;;;;;;;;;;5028327;28;20883;-62
2024/01/03 11:02:39;;;;;;;18.83;6.07;;;;;;;;;;5027694;28;20403;-60
2024/01/03 11:05:07;;;;;;;20.27;8.77;;;;;;;;;;5027166;28;20391;-60
2024/01/03 11:07:34;;;;;;;20.77;4.55;;;;;;;;;;5029076;28;20767;-60
2024/01/03 11:09:59;;;;;;;17.10;4.72;;;;;;;;;;5027029;28;20387;-60
2024/01/03 11:12:28;;;;;;;16.60;4.00;;;;;;;;;;5028127;28;20429;-60
2024/01/03 11:14:53;;;;;;;17.63;3.78;;;;;;;;;;5028707;28;20399;-60
2024/01/03 11:17:31;;;;;;;19.23;4.30;;;;;;;;;;5028305;28;20422;-60
2024/01/03 11:20:07;;;;;;;21.88;4.20;;;;;;;;;;5012567;28;20415;-60
2024/01/03 11:22:54;;;;;;;18.80;3.70;;;;;;;;;;5028111;28;20513;-60
2024/01/03 11:25:38;;;;;;;19.85;3.90;;;;;;;;;;5027917;28;20458;-60
2024/01/03 11:28:28;;;;;;;18.55;3.58;;;;;;;;;;5028397;28;20423;-60
2024/01/03 11:30:54;;;;;;;18.48;4.63;;;;;;;;;;5028039;28;20403;-59
2024/01/03 11:33:24;;;;;;;19.97;3.67;;;;;;;;;;5027631;28;20391;-60
2024/01/03 11:35:50;;;;;;;18.17;3.70;;;;;;;;;;5028394;28;20485;-60
2024/01/03 11:38:34;;;;;;;22.77;4.07;;;;;;;;;;5028058;28;20851;-60
2024/01/03 11:40:59;;;;;;;20.20;4.30;;;;;;;;;;5027571;28;20475;-60
2024/01/03 11:43:25;;;;;;;21.00;3.87;;;;;;;;;;5028054;28;20508;-60
2024/01/03 11:45:50;;;;;;;22.60;3.67;;;;;;;;;;5027788;28;20902;-60
2024/01/03 11:48:21;;;;;;;17.77;4.03;;;;;;;;;;5023421;28;20417;-60
2024/01/03 11:50:47;;;;;;;19.55;4.07;;;;;;;;;;5027828;28;20411;-60
2024/01/03 11:53:12;;;;;;;22.13;4.90;;;;;;;;;;5027428;28;20398;-60
2024/01/03 11:55:46;;;;;;;20.83;4.47;;;;;;;;;;5028467;28;20856;-59
2024/01/03 11:58:13;;;;;;;18.98;4.20;;;;;;;;;;5025906;28;20391;-60
2024/01/03 12:00:38;;;;;;;22.87;4.17;;;;;;;;;;5027271;28;20421;-60
2024/01/03 12:03:04;;;;;;;23.63;4.40;;;;;;;;;;5024984;28;20466;-60
2024/01/03 12:05:29;;;;;;;21.77;4.40;;;;;;;;;;5025634;28;20508;-60
2024/01/03 12:07:55;;;;;;;21.83;3.72;;;;;;;;;;5025651;28;20415;-60
2024/01/03 12:10:22;;;;;;;25.17;4.35;;;;;;;;;;5023683;28;20433;-60
2024/01/03 12:12:48;;;;;;;23.35;4.63;;;;;;;;;;5021882;28;20916;-60
2024/01/03 12:15:21;;;;;;;24.20;4.57;;;;;;;;;;5022924;28;20461;-60
2024/01/03 12:17:47;;;;;;;20.67;3.85;;;;;;;;;;5025172;28;20466;-60
2024/01/03 12:20:14;;;;;;;23.25;4.70;;;;;;;;;;5024644;28;20401;-60
2024/01/03 12:22:41;;;;;;;25.35;5.22;;;;;;;;;;5024050;28;21376;-60
2024/01/03 12:25:06;;;;;;;23.77;4.40;;;;;;;;;;5025581;28;20403;-61
2024/01/03 12:27:33;;;;;;;20.30;4.63;;;;;;;;;;5034890;28;20427;-60
2024/01/03 12:30:13;;;;;;;21.65;4.85;;;;;;;;;;5034051;28;20927;-60
2024/01/03 12:32:39;;;;;;;22.83;4.40;;;;;;;;;;5032300;28;20433;-60
2024/01/03 12:35:04;;;;;;;18.95;3.80;;;;;;;;;;5045132;28;20427;-61
2024/01/03 12:37:29;;;;;;;15.90;3.60;;;;;;;;;;5043573;28;20535;-61
2024/01/03 12:39:54;;;;;;;16.27;3.63;;;;;;;;;;5025272;28;20395;-60
2024/01/03 12:42:20;;;;;;;15.37;3.03;;;;;;;;;;5025176;28;20446;-61
2024/01/03 12:44:45;;;;;;;14.63;3.10;;;;;;;;;;5026374;28;20738;-61
2024/01/03 12:47:11;;;;;;;16.43;3.40;;;;;;;;;;5025222;28;20403;-61
2024/01/03 12:49:37;;;;;;;16.80;3.67;;;;;;;;;;5021162;28;20396;-61
2024/01/03 12:52:02;;;;;;;14.68;3.22;;;;;;;;;;5022538;28;20445;-61
2024/01/03 12:54:28;;;;;;;13.10;3.10;;;;;;;;;;5026092;28;20961;-61
2024/01/03 12:56:53;;;;;;;12.55;2.50;;;;;;;;;;5025775;28;20395;-61
2024/01/03 12:59:19;;;;;;;13.43;2.83;;;;;;;;;;5025885;28;20407;-60
2024/01/03 13:01:44;;;;;;;10.60;2.30;;;;;;;;;;5025002;28;20825;-60
2024/01/03 13:04:09;;;;;;;11.97;2.63;;;;;;;;;;5025175;28;20492;-60
2024/01/03 13:06:35;;;;;;;19.63;5.13;;;;;;;;;;5026009;28;20523;-60
2024/01/03 13:09:00;;;;;;;13.10;2.65;;;;;;;;;;5013975;28;20753;-60
2024/01/03 13:11:26;;;;;;;10.20;2.30;;;;;;;;;;5007293;28;20735;-60
2024/01/03 13:13:51;;;;;;;9.17;2.00;;;;;;;;;;5009876;28;20484;-61
2024/01/03 13:16:16;;;;;;;9.25;2.00;;;;;;;;;;5018769;28;20406;-60
2024/01/03 13:18:42;;;;;;;9.50;1.83;;;;;;;;;;5028655;28;20407;-59
2024/01/03 13:21:09;;;;;;;8.03;1.77;;;;;;;;;;5027614;28;20933;-59
2024/01/03 13:23:34;;;;;;;8.95;1.90;;;;;;;;;;5029456;28;20418;-59
2024/01/03 13:26:00;;;;;;;10.37;2.03;;;;;;;;;;5027584;28;20403;-60
2024/01/03 13:28:25;;;;;;;9.60;2.00;;;;;;;;;;5024968;28;20917;-59
2024/01/03 13:30:50;;;;;;;7.85;1.73;;;;;;;;;;5019676;28;20770;-59
2024/01/03 13:33:16;;;;;;;8.93;1.77;;;;;;;;;;5022343;28;20801;-59
2024/01/03 13:35:41;;;;;;;11.93;2.40;;;;;;;;;;5023168;28;20391;-59
2024/01/03 13:38:07;;;;;;;10.83;2.43;;;;;;;;;;5022606;28;20487;-60
2024/01/03 13:40:32;;;;;;;8.82;2.28;;;;;;;;;;5022059;28;20889;-59
2024/01/03 13:42:58;;;;;;;9.83;2.40;;;;;;;;;;5023007;28;20415;-59
2024/01/03 13:45:23;;;;;;;8.23;2.35;;;;;;;;;;5022073;28;20406;-59
2024/01/03 13:47:49;;;;;;;9.07;2.20;;;;;;;;;;5022906;28;20395;-59
2024/01/03 13:50:15;;;;;;;11.80;3.33;;;;;;;;;;5017281;28;20399;-60
2024/01/03 13:52:41;;;;;;;12.73;4.13;;;;;;;;;;5023083;28;20423;-60
2024/01/03 13:55:07;;;;;;;13.60;3.65;;;;;;;;;;5022778;28;20407;-61
2024/01/03 13:57:32;;;;;;;9.93;2.33;;;;;;;;;;5022578;28;20402;-60
2024/01/03 13:59:58;;;;;;;10.23;2.20;;;;;;;;;;5022223;28;20420;-60
2024/01/03 14:02:24;;;;;;;10.27;3.33;;;;;;;;;;5022079;28;20820;-60
2024/01/03 14:04:49;;;;;;;11.57;4.07;;;;;;;;;;5022581;28;20400;-60
2024/01/03 14:07:14;;;;;;;14.90;4.70;;;;;;;;;;5021683;28;20436;-60
2024/01/03 14:09:40;;;;;;;11.03;2.80;;;;;;;;;;5022547;28;20431;-60
2024/01/03 14:12:06;;;;;;;12.50;3.63;;;;;;;;;;5019846;28;20993;-60
2024/01/03 14:14:34;;;;;;;13.07;3.23;;;;;;;;;;5022148;28;20541;-60
2024/01/03 14:17:01;;;;;;;10.63;3.60;;;;;;;;;;5022160;28;20430;-60
2024/01/03 14:19:27;;;;;;;14.55;4.55;;;;;;;;;;5023610;28;20387;-60
2024/01/03 14:21:52;;;;;;;10.73;4.20;;;;;;;;;;5019191;28;20419;-60
2024/01/03 14:24:17;;;;;;;12.50;3.97;;;;;;;;;;5021463;28;20399;-60
2024/01/03 14:26:43;;;;;;;8.70;2.20;;;;;;;;;;5022527;28;20949;-60